Accueil
METAR-TAF:

METAR-TAF

Aéroports :

Emmen, Suisse

latitude: 47-05-32N, longitude: 8-18-16E, altitude: 426 m

Observation

Le bulletin a été fait il y a 1 heure et 4 minutes, à 08:50 UTC
Vent 3 kt de nord-est
Température 19°C
Humidité 78%
Pression 1022 hPa
Visibilité: 8000 m
Ciel couvert à une hauteur de 2000 ft

METAR: LSME 180850Z 04003KT 8000 OVC020 19/15 Q1022 RMK WHT

Heure: 11:54 (09:54 UTC)


TAF: absent

Observations et prévisions météorologiques de plus de 4000 aéroports (messages METAR et TAF).

Les stations disponibles sont représentées par des disques jaunes et rouges sur la carte.

Passer la souris dessus pour voir le nom de la station.

Cliquer dessus pour voir les observations et prévisions météorologiques.

Pour changer de carte: cliquez sur les boutons verts avec une croix noire pour zoomer, sur le bouton vert avec un tiret pour effectuer un zoom arrière, ou sur les flèches vertes pour les cartes adjacentes.


METAR-TAF: